createdAt,value
2023-05-08T00:02:12.099Z,51253.41
2023-05-08T00:04:39.202Z,51267.31
2023-05-08T00:07:06.525Z,51283.22
2023-05-08T00:09:33.638Z,51253.41
2023-05-08T00:12:00.682Z,51257.38
2023-05-08T00:14:27.924Z,51257.38
2023-05-08T00:16:55.089Z,51241.47
2023-05-08T00:19:22.220Z,51263.34
2023-05-08T00:21:49.309Z,51257.38
2023-05-08T00:24:16.426Z,51277.25
2023-05-08T00:26:44.437Z,51255.38
2023-05-08T00:29:11.915Z,51255.38
2023-05-08T00:31:39.003Z,51245.44
2023-05-08T00:34:06.103Z,51263.34
2023-05-08T00:36:33.192Z,51247.44
2023-05-08T00:39:00.354Z,51253.41
2023-05-08T00:41:27.431Z,51261.34
2023-05-08T00:43:54.552Z,51271.28
2023-05-08T00:46:21.844Z,51265.31
2023-05-08T00:48:49.272Z,51253.41
2023-05-08T00:51:16.791Z,51253.41
2023-05-08T00:53:45.353Z,51277.25
2023-05-08T00:56:15.174Z,51237.50
2023-05-08T00:58:43.838Z,51259.34
2023-05-08T01:01:11.771Z,51285.19
2023-05-08T01:03:39.319Z,51259.34
2023-05-08T01:06:07.084Z,51251.41
2023-05-08T01:08:34.201Z,51277.25
2023-05-08T01:11:31.079Z,51253.41
2023-05-08T01:14:58.633Z,51239.47
2023-05-08T01:17:36.916Z,51249.41
2023-05-08T01:20:18.954Z,51253.41
2023-05-08T01:23:21.450Z,51247.44
2023-05-08T01:26:31.597Z,51265.31
2023-05-08T01:29:35.950Z,51269.31
2023-05-08T01:32:21.298Z,51275.25
2023-05-08T01:35:10.862Z,51243.47
2023-05-08T01:38:00.808Z,51265.31
2023-05-08T01:40:40.200Z,51247.44
2023-05-08T01:43:21.192Z,51253.41
2023-05-08T01:45:51.936Z,51249.41
2023-05-08T01:48:34.445Z,51249.41
2023-05-08T01:51:07.623Z,51243.47
2023-05-08T01:53:50.068Z,51273.28
2023-05-08T01:56:23.079Z,51227.56
2023-05-08T01:58:53.369Z,51263.34
2023-05-08T02:01:25.788Z,51253.41
2023-05-08T02:03:57.632Z,51247.44
2023-05-08T02:06:27.081Z,51253.41
2023-05-08T02:08:56.324Z,51245.44
2023-05-08T02:11:24.921Z,51243.47
2023-05-08T02:13:52.967Z,51261.34
2023-05-08T02:16:22.155Z,51235.50
2023-05-08T02:18:53.256Z,51229.53
2023-05-08T02:21:22.331Z,51233.50
2023-05-08T02:23:51.251Z,51243.47
2023-05-08T02:26:19.149Z,51251.41
2023-05-08T02:28:47.300Z,51223.56
2023-05-08T02:31:14.910Z,51255.38
2023-05-08T02:33:44.092Z,51261.34
2023-05-08T02:36:18.302Z,51253.41
2023-05-08T02:38:51.468Z,51217.59
2023-05-08T02:41:25.289Z,51235.50
2023-05-08T02:43:52.870Z,51251.41
2023-05-08T02:46:36.792Z,51263.34
2023-05-08T02:49:13.340Z,51241.47
2023-05-08T02:51:54.467Z,51251.41
2023-05-08T02:54:44.433Z,51229.53
2023-05-08T02:57:30.320Z,51257.38
2023-05-08T03:00:22.511Z,51251.41
2023-05-08T03:03:24.441Z,51255.38
2023-05-08T03:05:58.188Z,51265.31
2023-05-08T03:08:34.866Z,51253.41
2023-05-08T03:11:19.829Z,51237.50
2023-05-08T03:13:49.592Z,51243.47
2023-05-08T03:16:24.815Z,51243.47
2023-05-08T03:18:58.076Z,51225.56
2023-05-08T03:21:29.480Z,51227.56
2023-05-08T03:24:01.153Z,51253.41
2023-05-08T03:26:28.997Z,51235.50
2023-05-08T03:28:57.981Z,51245.44
2023-05-08T03:31:32.390Z,51237.50
2023-05-08T03:34:00.232Z,51233.50
2023-05-08T03:36:28.912Z,51237.50
2023-05-08T03:38:56.776Z,51261.34
2023-05-08T03:41:26.193Z,51253.41
2023-05-08T03:43:55.258Z,51253.41
2023-05-08T03:46:23.344Z,51231.53
2023-05-08T03:48:51.907Z,51235.50
2023-05-08T03:51:21.361Z,51253.41
2023-05-08T03:53:49.525Z,51255.38
2023-05-08T03:56:17.535Z,51245.44
2023-05-08T03:59:05.355Z,51233.50
2023-05-08T04:01:42.784Z,51231.53
2023-05-08T04:04:39.824Z,51271.28
2023-05-08T04:07:22.524Z,51229.53
2023-05-08T04:10:04.815Z,51221.59
2023-05-08T04:13:01.663Z,51241.47
2023-05-08T04:15:32.016Z,51275.25
2023-05-08T04:18:10.626Z,51251.41
2023-05-08T04:20:41.620Z,51271.28
2023-05-08T04:23:12.455Z,51249.41
2023-05-08T04:25:41.238Z,51233.50
2023-05-08T04:28:09.007Z,51227.56
2023-05-08T04:30:37.146Z,51249.41
2023-05-08T04:33:06.129Z,51271.28
2023-05-08T04:35:34.450Z,51251.41
2023-05-08T04:38:03.356Z,51257.38
2023-05-08T04:40:30.500Z,51249.41
2023-05-08T04:42:58.769Z,51257.38
2023-05-08T04:45:25.889Z,51259.34
2023-05-08T04:47:53.284Z,51249.41
2023-05-08T04:50:21.459Z,51255.38
2023-05-08T04:52:48.775Z,51265.31
2023-05-08T04:55:16.399Z,51277.25
2023-05-08T04:57:44.567Z,51259.34
2023-05-08T05:00:13.053Z,51273.28
2023-05-08T05:02:42.334Z,51261.34
2023-05-08T05:05:09.671Z,51257.38
2023-05-08T05:07:37.016Z,51267.31
2023-05-08T05:10:04.599Z,51253.41
2023-05-08T05:12:33.164Z,51265.31
2023-05-08T05:15:00.739Z,51263.34
2023-05-08T05:17:31.727Z,51255.38
2023-05-08T05:19:59.895Z,51255.38
2023-05-08T05:22:28.802Z,51253.41
2023-05-08T05:27:24.624Z,51277.25
2023-05-08T05:29:52.134Z,51243.47
2023-05-08T05:32:19.325Z,51237.50
2023-05-08T05:34:47.374Z,51265.31
2023-05-08T05:37:14.852Z,51291.16
2023-05-08T05:39:42.119Z,51281.22
2023-05-08T05:42:09.783Z,51261.34
2023-05-08T05:44:37.661Z,51285.19
2023-05-08T05:47:10.225Z,51269.31
2023-05-08T05:49:39.819Z,51259.34
2023-05-08T05:52:07.273Z,51269.31
2023-05-08T05:54:34.428Z,51275.25
2023-05-08T05:57:01.723Z,51301.09
2023-05-08T05:59:28.803Z,51281.22
2023-05-08T06:01:56.311Z,51285.19
2023-05-08T06:04:23.518Z,51281.22
2023-05-08T06:06:50.729Z,51265.31
2023-05-08T06:09:18.126Z,51311.06
2023-05-08T06:11:45.199Z,51289.19
2023-05-08T06:14:12.353Z,51279.25
2023-05-08T06:16:39.935Z,51285.19
2023-05-08T06:19:08.091Z,51295.16
2023-05-08T06:21:35.376Z,51273.28
2023-05-08T06:24:03.189Z,51287.19
2023-05-08T06:26:30.352Z,51301.09
2023-05-08T06:28:57.409Z,51295.16
2023-05-08T06:31:24.580Z,51287.19
2023-05-08T06:33:51.589Z,51303.09
2023-05-08T06:36:18.764Z,51287.19
2023-05-08T06:38:46.047Z,51326.94
2023-05-08T06:41:15.208Z,51295.16
2023-05-08T06:43:42.746Z,51315.03
2023-05-08T06:46:09.935Z,51305.09
2023-05-08T06:48:37.081Z,51317.00
2023-05-08T06:51:04.592Z,51307.06
2023-05-08T06:53:31.688Z,51293.16
2023-05-08T06:55:58.939Z,51287.19
2023-05-08T06:58:26.084Z,51293.16
2023-05-08T07:00:53.166Z,51285.19
2023-05-08T07:03:20.220Z,51293.16
2023-05-08T07:05:47.426Z,51307.06
2023-05-08T07:08:14.542Z,51295.16
2023-05-08T07:10:41.602Z,51313.03
2023-05-08T07:13:08.753Z,51352.78
2023-05-08T07:15:36.138Z,51287.19
2023-05-08T07:18:03.310Z,51311.06
2023-05-08T07:20:30.813Z,51321.00
2023-05-08T07:22:57.894Z,51307.06
2023-05-08T07:25:25.093Z,51350.81
2023-05-08T07:27:52.282Z,51321.00
2023-05-08T07:30:19.562Z,51307.06
2023-05-08T07:32:46.761Z,51326.94
2023-05-08T07:35:14.150Z,51334.91
2023-05-08T07:37:41.660Z,51309.06
2023-05-08T07:40:09.256Z,51297.13
2023-05-08T07:42:46.496Z,51330.94
2023-05-08T07:45:15.099Z,51336.91
2023-05-08T07:48:04.637Z,51332.91
2023-05-08T07:50:32.298Z,51336.91
2023-05-08T07:53:00.032Z,51322.97
2023-05-08T07:55:28.813Z,51328.94
2023-05-08T07:57:56.950Z,51352.78
2023-05-08T08:00:30.292Z,51354.78
2023-05-08T08:02:58.228Z,51340.88
2023-05-08T08:05:27.381Z,51324.97
2023-05-08T08:07:55.338Z,51340.88
2023-05-08T08:10:24.646Z,51386.59
2023-05-08T08:12:52.215Z,51324.97
2023-05-08T08:15:19.780Z,51354.78
2023-05-08T08:17:46.866Z,51362.75
2023-05-08T08:20:14.466Z,51378.66
2023-05-08T08:22:41.623Z,51336.91
2023-05-08T08:25:09.332Z,51340.88
2023-05-08T08:27:36.648Z,51354.78
2023-05-08T08:30:16.921Z,51376.66
2023-05-08T08:32:45.635Z,51319.00
2023-05-08T08:35:13.650Z,51374.66
2023-05-08T08:37:41.076Z,51342.84
2023-05-08T08:40:09.043Z,51358.75
2023-05-08T08:42:36.251Z,51340.88
2023-05-08T08:45:03.600Z,51340.88
2023-05-08T08:47:41.598Z,51376.66
2023-05-08T08:50:14.372Z,51321.00
2023-05-08T08:53:08.234Z,51334.91
2023-05-08T08:55:40.914Z,51376.66
2023-05-08T08:58:17.912Z,51328.94
2023-05-08T09:00:45.533Z,51358.75
2023-05-08T09:03:14.273Z,51364.72
2023-05-08T09:05:43.837Z,51362.75
2023-05-08T09:08:12.859Z,51358.75
2023-05-08T09:10:40.148Z,51370.69
2023-05-08T09:13:07.780Z,51400.50
2023-05-08T09:15:35.110Z,51380.63
2023-05-08T09:18:03.056Z,51376.66
2023-05-08T09:20:30.991Z,51380.63
2023-05-08T09:23:01.889Z,51386.59
2023-05-08T09:25:45.817Z,51372.69
2023-05-08T09:28:21.082Z,51412.44
2023-05-08T09:30:59.580Z,51388.59
2023-05-08T09:33:29.601Z,51388.59
2023-05-08T09:35:58.152Z,51388.59
2023-05-08T09:38:39.433Z,51402.50
2023-05-08T09:41:16.611Z,51406.47
2023-05-08T09:43:46.046Z,51402.50
2023-05-08T09:46:27.293Z,51418.41
2023-05-08T09:48:57.261Z,51418.41
2023-05-08T09:51:27.592Z,51430.34
2023-05-08T09:53:57.707Z,51432.31
2023-05-08T09:56:40.314Z,51424.38
2023-05-08T09:59:29.979Z,51392.56
2023-05-08T10:01:57.972Z,51406.47
2023-05-08T10:04:36.523Z,51414.44
2023-05-08T10:07:04.395Z,51408.47
2023-05-08T10:09:42.546Z,51410.44
2023-05-08T10:12:10.874Z,51384.59
2023-05-08T10:14:38.105Z,51388.59
2023-05-08T10:17:08.106Z,51392.56
2023-05-08T10:19:40.840Z,51428.34
2023-05-08T10:22:11.804Z,51408.47
2023-05-08T10:24:41.830Z,51392.56
2023-05-08T10:27:28.106Z,51426.34
2023-05-08T10:30:01.495Z,51434.31
2023-05-08T10:32:33.011Z,51416.41
2023-05-08T10:35:00.865Z,51454.19
2023-05-08T10:37:31.164Z,51436.28
2023-05-08T10:39:58.970Z,51418.41
2023-05-08T10:42:27.848Z,51428.34
2023-05-08T10:44:55.726Z,51454.19
2023-05-08T10:47:45.970Z,51446.25
2023-05-08T10:50:44.413Z,51426.34
2023-05-08T10:53:16.891Z,51428.34
2023-05-08T10:55:47.987Z,51466.13
2023-05-08T10:58:32.767Z,51464.13
2023-05-08T11:00:59.891Z,51448.22
2023-05-08T11:03:46.338Z,51474.06
2023-05-08T11:06:54.988Z,51491.97
2023-05-08T11:09:27.893Z,51503.91
2023-05-08T11:12:21.766Z,51501.91
2023-05-08T11:15:09.559Z,51491.97
2023-05-08T11:17:37.066Z,51474.06
2023-05-08T11:20:07.336Z,51480.03
2023-05-08T11:22:37.029Z,51456.19
2023-05-08T11:25:09.526Z,51482.03
2023-05-08T11:27:49.080Z,51464.13
2023-05-08T11:30:25.337Z,51474.06
2023-05-08T11:33:05.362Z,51484.00
2023-05-08T11:35:58.701Z,51513.84
2023-05-08T11:38:30.574Z,51511.84
2023-05-08T11:41:27.350Z,51561.56
2023-05-08T11:44:09.512Z,51583.41
2023-05-08T11:46:52.300Z,51643.06
2023-05-08T11:49:26.284Z,51686.81
2023-05-08T11:51:59.909Z,51766.34
2023-05-08T11:54:30.871Z,51756.41
2023-05-08T11:56:59.779Z,51766.34
2023-05-08T11:59:27.439Z,51816.06
2023-05-08T12:04:50.532Z,51875.69
2023-05-08T12:07:18.785Z,51935.34
2023-05-08T12:09:47.778Z,52058.63
2023-05-08T12:12:15.032Z,52148.13
2023-05-08T12:14:42.188Z,52227.66
2023-05-08T12:17:10.474Z,52466.31
2023-05-08T12:19:37.648Z,52655.22
2023-05-08T12:22:04.918Z,52702.97
2023-05-08T12:24:32.121Z,52848.16
2023-05-08T12:26:59.307Z,52949.59
2023-05-08T12:29:26.371Z,52893.91
2023-05-08T12:31:53.765Z,52760.66
2023-05-08T12:34:21.592Z,52567.72
2023-05-08T12:36:48.751Z,52523.97
2023-05-08T12:39:18.469Z,52392.72
2023-05-08T12:41:53.176Z,52549.81
2023-05-08T12:44:25.538Z,52738.75
2023-05-08T12:46:55.287Z,52872.03
2023-05-08T12:49:32.930Z,52878.00
2023-05-08T12:52:06.858Z,52921.75
2023-05-08T12:54:41.065Z,52850.16
2023-05-08T12:57:16.512Z,52979.44
2023-05-08T12:59:45.141Z,52905.84
2023-05-08T13:02:18.346Z,52947.59
2023-05-08T13:04:46.302Z,53053.03
2023-05-08T13:07:13.999Z,53166.41
2023-05-08T13:09:56.027Z,53192.25
2023-05-08T13:12:23.147Z,53271.81
2023-05-08T13:14:50.676Z,53240.00
2023-05-08T13:17:19.323Z,53277.78
2023-05-08T13:19:46.474Z,53295.69
2023-05-08T13:22:13.653Z,53325.53
2023-05-08T13:24:40.772Z,53186.28
2023-05-08T13:27:08.046Z,53269.84
2023-05-08T13:29:35.211Z,53421.03
2023-05-08T13:32:02.454Z,53425.00
2023-05-08T13:34:29.682Z,53564.25
2023-05-08T13:36:57.440Z,53810.94
2023-05-08T13:39:24.670Z,53816.91
2023-05-08T13:41:51.916Z,53781.09
2023-05-08T13:44:19.411Z,53723.41
2023-05-08T13:46:46.657Z,53705.50
2023-05-08T13:49:14.118Z,53801.00
2023-05-08T13:51:41.921Z,53934.28
2023-05-08T13:54:09.771Z,54069.59
2023-05-08T13:56:36.948Z,53972.09
2023-05-08T13:59:04.072Z,53892.50
2023-05-08T14:01:31.264Z,53842.78
2023-05-08T14:03:58.498Z,53409.09
2023-05-08T14:06:25.816Z,53214.16
2023-05-08T14:08:54.606Z,53162.44
2023-05-08T14:11:24.206Z,53023.19
2023-05-08T14:13:51.378Z,53182.31
2023-05-08T14:16:18.694Z,53367.31
2023-05-08T14:18:45.957Z,53508.56
2023-05-08T14:21:13.111Z,53962.16
2023-05-08T14:23:40.263Z,53828.84
2023-05-08T14:26:07.434Z,53948.22
2023-05-08T14:28:34.705Z,53804.97
2023-05-08T14:31:01.988Z,53860.69
2023-05-08T14:33:29.310Z,53379.25
2023-05-08T14:35:56.536Z,53307.63
2023-05-08T14:38:23.713Z,53261.88
2023-05-08T14:40:51.979Z,53236.03
2023-05-08T14:43:19.097Z,53074.91
2023-05-08T14:45:46.179Z,53263.88
2023-05-08T14:48:13.320Z,53249.94
2023-05-08T14:50:40.696Z,53299.69
2023-05-08T14:53:08.015Z,53011.25
2023-05-08T14:55:35.400Z,53238.00
2023-05-08T14:58:02.764Z,53355.38
2023-05-08T15:00:29.896Z,53588.13
2023-05-08T15:02:57.149Z,53448.88
2023-05-08T15:05:24.495Z,53409.09
2023-05-08T15:07:51.993Z,53639.84
2023-05-08T15:10:19.246Z,53536.41
2023-05-08T15:12:46.404Z,53397.16
2023-05-08T15:15:13.676Z,53174.34
2023-05-08T15:17:41.741Z,53170.38
2023-05-08T15:20:09.950Z,53353.38
2023-05-08T15:22:37.253Z,53106.72
2023-05-08T15:25:05.598Z,53055.00
2023-05-08T15:27:32.687Z,53005.28
2023-05-08T15:29:59.784Z,53136.56
2023-05-08T15:32:27.083Z,53305.66
2023-05-08T15:34:57.560Z,53387.19
2023-05-08T15:37:24.814Z,53385.22
2023-05-08T15:39:52.079Z,53550.31
2023-05-08T15:42:20.687Z,53401.13
2023-05-08T15:47:19.503Z,53337.47
2023-05-08T15:49:46.566Z,53319.56
2023-05-08T15:52:18.497Z,53176.34
2023-05-08T15:54:50.015Z,53240.00
2023-05-08T15:57:17.562Z,53287.75
2023-05-08T15:59:44.823Z,53148.50
2023-05-08T16:02:11.929Z,52929.72
2023-05-08T16:04:39.177Z,52754.69
2023-05-08T16:07:06.268Z,52820.31
2023-05-08T16:09:33.979Z,52619.44
2023-05-08T16:12:01.125Z,52677.13
2023-05-08T16:14:28.225Z,52595.56
2023-05-08T16:16:55.611Z,52615.47
2023-05-08T16:19:22.778Z,52448.41
2023-05-08T16:21:50.233Z,52408.63
2023-05-08T16:24:17.466Z,52287.31
2023-05-08T16:26:44.557Z,52168.00
2023-05-08T16:29:11.663Z,52108.34
2023-05-08T16:31:38.813Z,52197.84
2023-05-08T16:34:06.222Z,52140.16
2023-05-08T16:36:33.260Z,52247.53
2023-05-08T16:39:00.297Z,52327.09
2023-05-08T16:41:27.903Z,52287.31
2023-05-08T16:43:55.178Z,52289.31
2023-05-08T16:46:30.021Z,52144.13
2023-05-08T16:48:58.114Z,52014.88
2023-05-08T16:51:25.737Z,51953.25
2023-05-08T16:53:52.979Z,51837.91
2023-05-08T16:56:22.748Z,51818.03
2023-05-08T16:58:49.902Z,51762.38
2023-05-08T17:01:17.682Z,51756.41
2023-05-08T17:03:44.819Z,51724.59
2023-05-08T17:06:15.101Z,51754.41
2023-05-08T17:08:42.229Z,51728.56
2023-05-08T17:11:09.282Z,51686.81
2023-05-08T17:13:36.434Z,51682.84
2023-05-08T17:16:04.192Z,51708.69
2023-05-08T17:18:31.515Z,51758.38
2023-05-08T17:20:59.331Z,51808.09
2023-05-08T17:23:26.444Z,51780.25
2023-05-08T17:26:01.453Z,51662.94
2023-05-08T17:28:28.819Z,51603.31
2023-05-08T17:30:56.412Z,51539.69
2023-05-08T17:33:23.594Z,51507.88
2023-05-08T17:35:50.759Z,51468.09
2023-05-08T17:38:18.276Z,51484.00
2023-05-08T17:40:46.157Z,51470.09
2023-05-08T17:43:13.430Z,51472.09
2023-05-08T17:45:40.766Z,51428.34
2023-05-08T17:48:07.947Z,51434.31
2023-05-08T17:50:42.156Z,51462.16
2023-05-08T17:53:09.938Z,51416.41
2023-05-08T17:55:39.235Z,51432.31
2023-05-08T17:58:06.411Z,51386.59
2023-05-08T18:00:33.674Z,51384.59
2023-05-08T18:03:00.983Z,51380.63
2023-05-08T18:05:28.276Z,51376.66
2023-05-08T18:07:55.532Z,51374.66
2023-05-08T18:10:23.712Z,51360.75
2023-05-08T18:12:50.930Z,51376.66
2023-05-08T18:15:18.115Z,51380.63
2023-05-08T18:17:45.438Z,51352.78
2023-05-08T18:20:13.213Z,51334.91
2023-05-08T18:22:40.611Z,51338.88
2023-05-08T18:25:08.311Z,51332.91
2023-05-08T18:27:35.844Z,51344.84
2023-05-08T18:30:06.960Z,51319.00
2023-05-08T18:32:40.866Z,51321.00
2023-05-08T18:35:12.944Z,51332.91
2023-05-08T18:37:40.880Z,51344.84
2023-05-08T18:40:09.273Z,51330.94
2023-05-08T18:42:39.292Z,51330.94
2023-05-08T18:47:57.355Z,51328.94
2023-05-08T18:50:25.484Z,51356.78
2023-05-08T18:52:53.017Z,51295.16
2023-05-08T18:55:20.713Z,51303.09
2023-05-08T18:57:58.225Z,51297.13
2023-05-08T19:00:28.149Z,51277.25
2023-05-08T19:02:57.453Z,51259.34
2023-05-08T19:05:29.106Z,51273.28
2023-05-08T19:08:03.220Z,51279.25
2023-05-08T19:10:33.780Z,51271.28
2023-05-08T19:13:02.306Z,51277.25
2023-05-08T19:15:30.009Z,51275.25
2023-05-08T19:17:57.514Z,51279.25
2023-05-08T19:20:27.416Z,51253.41
2023-05-08T19:22:54.967Z,51279.25
2023-05-08T19:25:22.246Z,51249.41
2023-05-08T19:27:49.465Z,51271.28
2023-05-08T19:30:16.738Z,51241.47
2023-05-08T19:32:43.969Z,51277.25
2023-05-08T19:35:11.050Z,51255.38
2023-05-08T19:37:38.153Z,51245.44
2023-05-08T19:40:06.616Z,51239.47
2023-05-08T19:42:34.555Z,51275.25
2023-05-08T19:45:01.641Z,51263.34
2023-05-08T19:47:28.736Z,51251.41
2023-05-08T19:49:55.864Z,51257.38
2023-05-08T19:52:22.956Z,51273.28
2023-05-08T19:54:50.370Z,51269.31
2023-05-08T19:57:17.542Z,51245.44
2023-05-08T19:59:44.769Z,51261.34
2023-05-08T20:02:11.976Z,51239.47
2023-05-08T20:04:57.384Z,51259.34
2023-05-08T20:07:26.406Z,51241.47
2023-05-08T20:09:53.670Z,51239.47
2023-05-08T20:12:20.808Z,51241.47
2023-05-08T20:14:47.863Z,51235.50
2023-05-08T20:17:15.013Z,51279.25
2023-05-08T20:19:42.234Z,51229.53
2023-05-08T20:22:10.964Z,51235.50
2023-05-08T20:24:38.057Z,51253.41
2023-05-08T20:27:05.171Z,51201.72
2023-05-08T20:29:32.700Z,51223.56
2023-05-08T20:32:00.127Z,51237.50
2023-05-08T20:34:27.292Z,51241.47
2023-05-08T20:36:54.446Z,51201.72
2023-05-08T20:39:21.501Z,51207.66
2023-05-08T20:41:48.623Z,51225.56
2023-05-08T20:44:17.743Z,51225.56
2023-05-08T20:46:45.849Z,51209.66
2023-05-08T20:49:13.151Z,51219.59
2023-05-08T20:51:40.421Z,51223.56
2023-05-08T20:54:07.538Z,51209.66
2023-05-08T20:56:35.950Z,51201.72
2023-05-08T20:59:03.807Z,51207.66
2023-05-08T21:01:31.048Z,51197.72
2023-05-08T21:03:58.225Z,51219.59
2023-05-08T21:06:26.164Z,51205.69
2023-05-08T21:08:53.384Z,51193.75
2023-05-08T21:11:21.244Z,51221.59
2023-05-08T21:13:48.456Z,51191.78
2023-05-08T21:16:15.813Z,51171.88
2023-05-08T21:18:43.022Z,51223.56
2023-05-08T21:21:19.098Z,51219.59
2023-05-08T21:23:46.603Z,51177.84
2023-05-08T21:26:13.721Z,51205.69
2023-05-08T21:28:40.962Z,51191.78
2023-05-08T21:31:08.096Z,51211.66
2023-05-08T21:33:35.612Z,51207.66
2023-05-08T21:36:02.851Z,51191.78
2023-05-08T21:38:30.275Z,51167.91
2023-05-08T21:40:57.455Z,51157.97
2023-05-08T21:43:24.605Z,51189.78
2023-05-08T21:45:51.682Z,51173.88
2023-05-08T21:48:23.784Z,51175.88
2023-05-08T21:50:50.898Z,51193.75
2023-05-08T21:53:17.953Z,51221.59
2023-05-08T21:55:45.152Z,51205.69
2023-05-08T21:58:12.286Z,51191.78
2023-05-08T22:00:40.497Z,51169.91
2023-05-08T22:03:07.727Z,51193.75
2023-05-08T22:05:34.867Z,51167.91
2023-05-08T22:08:01.949Z,51201.72
2023-05-08T22:10:29.067Z,51179.84
2023-05-08T22:12:56.479Z,51195.75
2023-05-08T22:15:29.694Z,51173.88
2023-05-08T22:17:58.251Z,51171.88
2023-05-08T22:20:25.811Z,51165.91
2023-05-08T22:22:53.034Z,51185.81
2023-05-08T22:25:21.921Z,51199.72
2023-05-08T22:27:49.387Z,51165.91
2023-05-08T22:30:16.582Z,51165.91
2023-05-08T22:32:43.828Z,51185.81
2023-05-08T22:35:11.398Z,51173.88
2023-05-08T22:37:38.778Z,51161.94
2023-05-08T22:40:07.106Z,51159.97
2023-05-08T22:42:34.241Z,51177.84
2023-05-08T22:45:01.780Z,51146.03
2023-05-08T22:47:29.263Z,51167.91
2023-05-08T22:49:56.611Z,51138.09
2023-05-08T22:52:23.740Z,51185.81
2023-05-08T22:54:50.932Z,51171.88
2023-05-08T22:57:18.220Z,51155.97
2023-05-08T22:59:45.297Z,51157.97
2023-05-08T23:02:12.432Z,51142.06
2023-05-08T23:04:40.098Z,51144.06
2023-05-08T23:07:07.524Z,51155.97
2023-05-08T23:09:35.223Z,51177.84
2023-05-08T23:12:06.402Z,51167.91
2023-05-08T23:14:33.656Z,51177.84
2023-05-08T23:17:00.720Z,51163.94
2023-05-08T23:19:27.868Z,51138.09
2023-05-08T23:21:54.959Z,51167.91
2023-05-08T23:24:22.008Z,51146.03
2023-05-08T23:26:49.725Z,51155.97
2023-05-08T23:29:16.878Z,51181.81
2023-05-08T23:31:44.049Z,51152.00
2023-05-08T23:34:11.180Z,51150.03
2023-05-08T23:36:38.247Z,51146.03
2023-05-08T23:39:05.376Z,51167.91
2023-05-08T23:41:32.449Z,51171.88
2023-05-08T23:43:59.525Z,51150.03
2023-05-08T23:46:26.891Z,51150.03
2023-05-08T23:48:54.045Z,51152.00
2023-05-08T23:51:21.729Z,51150.03
2023-05-08T23:53:50.178Z,51148.03
2023-05-08T23:56:17.451Z,51136.09
2023-05-08T23:58:44.566Z,51152.00
